createdAt,value
2017-02-26T00:00:55.952Z,0
2017-02-26T00:02:06.233Z,0
2017-02-26T00:03:16.102Z,0
2017-02-26T00:04:26.682Z,0
2017-02-26T00:05:36.204Z,0
2017-02-26T00:06:46.514Z,0
2017-02-26T00:07:56.867Z,0
2017-02-26T00:09:06.789Z,0
2017-02-26T00:10:16.929Z,0
2017-02-26T00:11:26.833Z,0
2017-02-26T00:12:36.772Z,0
2017-02-26T00:13:47.103Z,0
2017-02-26T00:14:57.421Z,0
2017-02-26T00:16:07.992Z,0
2017-02-26T00:17:18.303Z,0
2017-02-26T00:18:28.233Z,0
2017-02-26T00:19:38.610Z,0
2017-02-26T00:20:48.917Z,0
2017-02-26T00:21:59.474Z,0
2017-02-26T00:23:09.750Z,0
2017-02-26T00:24:20.053Z,0
2017-02-26T00:25:29.972Z,0
2017-02-26T00:26:39.831Z,0
2017-02-26T00:27:50.409Z,0
2017-02-26T00:29:00.692Z,0
2017-02-26T00:30:11.056Z,0
2017-02-26T00:31:21.334Z,0
2017-02-26T00:32:31.653Z,0
2017-02-26T00:33:41.419Z,0
2017-02-26T00:34:51.358Z,0
2017-02-26T00:36:01.264Z,0
2017-02-26T00:37:11.591Z,0
2017-02-26T00:38:21.162Z,0
2017-02-26T00:39:31.339Z,0
2017-02-26T00:40:40.833Z,0
2017-02-26T00:41:50.770Z,0
2017-02-26T00:43:01.063Z,0
2017-02-26T00:44:11.357Z,0
2017-02-26T00:45:21.998Z,0
2017-02-26T00:46:32.282Z,0
2017-02-26T00:47:42.223Z,0
2017-02-26T00:48:52.651Z,0
2017-02-26T00:50:03.039Z,0
2017-02-26T00:51:13.595Z,0
2017-02-26T00:52:23.956Z,0
2017-02-26T00:53:33.839Z,0
2017-02-26T00:54:44.226Z,0
2017-02-26T00:55:54.543Z,0
2017-02-26T00:57:04.311Z,0
2017-02-26T00:58:14.205Z,0
2017-02-26T00:59:24.475Z,0
2017-02-26T01:00:34.804Z,0
2017-02-26T01:01:45.130Z,0
2017-02-26T01:02:54.875Z,0
2017-02-26T01:04:05.259Z,0
2017-02-26T01:05:15.192Z,0
2017-02-26T01:06:25.075Z,0
2017-02-26T01:07:34.946Z,0
2017-02-26T01:08:45.576Z,0
2017-02-26T01:09:55.891Z,0
2017-02-26T01:11:06.179Z,0
2017-02-26T01:12:16.454Z,0
2017-02-26T01:13:26.780Z,0
2017-02-26T01:14:37.327Z,0
2017-02-26T01:15:47.631Z,0
2017-02-26T01:16:57.914Z,0
2017-02-26T01:18:08.216Z,0
2017-02-26T01:19:18.648Z,0
2017-02-26T01:20:28.804Z,0
2017-02-26T01:21:39.106Z,0
2017-02-26T01:22:49.416Z,0
2017-02-26T01:23:59.762Z,0
2017-02-26T01:25:10.081Z,0
2017-02-26T01:26:20.604Z,0
2017-02-26T01:27:30.508Z,0
2017-02-26T01:28:40.772Z,0
2017-02-26T01:29:50.631Z,0
2017-02-26T01:31:00.980Z,0
2017-02-26T01:32:11.155Z,0
2017-02-26T01:33:21.113Z,0
2017-02-26T01:34:30.999Z,0
2017-02-26T01:35:41.312Z,0
2017-02-26T01:36:51.572Z,0
2017-02-26T01:38:01.683Z,0
2017-02-26T01:39:12.189Z,0
2017-02-26T01:40:22.470Z,0
2017-02-26T01:41:32.348Z,0
2017-02-26T01:42:42.214Z,0
2017-02-26T01:43:52.327Z,0
2017-02-26T01:45:02.200Z,0
2017-02-26T01:46:12.180Z,0
2017-02-26T01:47:21.651Z,0
2017-02-26T01:48:31.940Z,0
2017-02-26T01:49:41.756Z,0
2017-02-26T01:50:51.728Z,0
2017-02-26T01:52:00.811Z,0
2017-02-26T01:53:10.338Z,0
2017-02-26T01:54:20.713Z,0
2017-02-26T01:55:31.296Z,0
2017-02-26T01:56:41.604Z,0
2017-02-26T01:57:51.656Z,0
2017-02-26T01:59:02.016Z,0
2017-02-26T02:00:12.341Z,0
2017-02-26T02:01:22.889Z,0
2017-02-26T02:02:33.264Z,0
2017-02-26T02:03:43.534Z,0
2017-02-26T02:04:53.890Z,0
2017-02-26T02:06:04.250Z,0
2017-02-26T02:07:14.073Z,0
2017-02-26T02:08:24.360Z,0
2017-02-26T02:09:34.623Z,0
2017-02-26T02:10:44.692Z,0
2017-02-26T02:11:54.601Z,0
2017-02-26T02:13:04.738Z,0
2017-02-26T02:14:14.647Z,0
2017-02-26T02:15:24.583Z,0
2017-02-26T02:16:34.079Z,0
2017-02-26T02:17:43.967Z,0
2017-02-26T02:18:54.110Z,0
2017-02-26T02:20:03.970Z,0
2017-02-26T02:21:14.357Z,0
2017-02-26T02:22:23.883Z,0
2017-02-26T02:23:33.767Z,0
2017-02-26T02:24:44.314Z,0
2017-02-26T02:25:54.618Z,0
2017-02-26T02:27:04.498Z,0
2017-02-26T02:28:14.751Z,0
2017-02-26T02:29:24.641Z,0
2017-02-26T02:30:35.214Z,0
2017-02-26T02:31:45.113Z,0
2017-02-26T02:32:55.435Z,0
2017-02-26T02:34:04.885Z,0
2017-02-26T02:35:14.864Z,0
2017-02-26T02:36:25.373Z,0
2017-02-26T02:37:35.271Z,0
2017-02-26T02:38:45.179Z,0
2017-02-26T02:39:55.566Z,0
2017-02-26T02:41:05.020Z,0
2017-02-26T02:42:15.131Z,0
2017-02-26T02:43:25.556Z,0
2017-02-26T02:44:35.870Z,0
2017-02-26T02:45:45.786Z,0
2017-02-26T02:46:56.147Z,0
2017-02-26T02:48:06.255Z,0
2017-02-26T02:49:15.726Z,0
2017-02-26T02:50:26.020Z,0
2017-02-26T02:51:36.464Z,0
2017-02-26T02:52:46.333Z,0
2017-02-26T02:53:56.930Z,0
2017-02-26T02:55:06.807Z,0
2017-02-26T02:56:17.104Z,0
2017-02-26T02:57:27.386Z,0
2017-02-26T02:58:36.873Z,0
2017-02-26T02:59:47.421Z,0
2017-02-26T03:00:57.754Z,0
2017-02-26T03:02:07.674Z,0
2017-02-26T03:03:17.932Z,0
2017-02-26T03:04:28.201Z,0
2017-02-26T03:05:38.727Z,0
2017-02-26T03:06:49.029Z,0
2017-02-26T03:07:59.301Z,0
2017-02-26T03:09:09.573Z,0
2017-02-26T03:10:19.473Z,0
2017-02-26T03:11:30.037Z,0
2017-02-26T03:12:40.316Z,0
2017-02-26T03:13:50.212Z,0
2017-02-26T03:15:00.634Z,0
2017-02-26T03:16:10.563Z,0
2017-02-26T03:17:21.108Z,0
2017-02-26T03:18:31.428Z,0
2017-02-26T03:19:41.746Z,0
2017-02-26T03:20:51.680Z,0
2017-02-26T03:22:01.946Z,0
2017-02-26T03:23:12.078Z,0
2017-02-26T03:24:21.974Z,0
2017-02-26T03:25:31.902Z,0
2017-02-26T03:26:41.859Z,0
2017-02-26T03:27:52.154Z,0
2017-02-26T03:29:02.671Z,0
2017-02-26T03:30:12.947Z,0
2017-02-26T03:31:23.216Z,0
2017-02-26T03:32:33.095Z,0
2017-02-26T03:33:42.975Z,0
2017-02-26T03:34:53.092Z,0
2017-02-26T03:36:02.974Z,0
2017-02-26T03:37:13.241Z,0
2017-02-26T03:38:23.170Z,0
2017-02-26T03:39:33.459Z,0
2017-02-26T03:40:43.799Z,0
2017-02-26T03:41:54.118Z,0
2017-02-26T03:43:03.988Z,0
2017-02-26T03:44:13.517Z,0
2017-02-26T03:45:23.396Z,0
2017-02-26T03:46:33.962Z,0
2017-02-26T03:47:43.846Z,0
2017-02-26T03:48:53.698Z,0
2017-02-26T03:50:04.039Z,0
2017-02-26T03:51:14.335Z,0
2017-02-26T03:52:24.879Z,0
2017-02-26T03:53:33.957Z,0
2017-02-26T03:54:43.814Z,0
2017-02-26T03:55:54.078Z,0
2017-02-26T03:57:04.388Z,0
2017-02-26T03:58:14.949Z,0
2017-02-26T03:59:24.811Z,0
2017-02-26T04:00:35.121Z,0
2017-02-26T04:01:44.997Z,0
2017-02-26T04:02:55.236Z,0
2017-02-26T04:04:05.737Z,0
2017-02-26T04:05:15.654Z,0
2017-02-26T04:06:26.073Z,0
2017-02-26T04:07:36.425Z,0
2017-02-26T04:08:45.880Z,0
2017-02-26T04:09:56.451Z,0
2017-02-26T04:11:06.764Z,0
2017-02-26T04:12:16.632Z,0
2017-02-26T04:13:26.889Z,0
2017-02-26T04:14:37.149Z,0
2017-02-26T04:15:47.308Z,0
2017-02-26T04:16:57.557Z,0
2017-02-26T04:18:07.831Z,0
2017-02-26T04:19:17.699Z,0
2017-02-26T04:20:27.583Z,0
2017-02-26T04:21:38.160Z,0
2017-02-26T04:22:48.035Z,0
2017-02-26T04:23:57.895Z,0
2017-02-26T04:25:08.195Z,0
2017-02-26T04:26:18.612Z,0
2017-02-26T04:27:29.149Z,0
2017-02-26T04:28:38.627Z,0
2017-02-26T04:29:48.933Z,0
2017-02-26T04:30:59.284Z,0
2017-02-26T04:32:09.536Z,0
2017-02-26T04:33:20.062Z,0
2017-02-26T04:34:30.366Z,0
2017-02-26T04:35:40.242Z,0
2017-02-26T04:36:50.792Z,0
2017-02-26T04:38:01.045Z,0
2017-02-26T04:39:10.785Z,0
2017-02-26T04:40:21.054Z,0
2017-02-26T04:41:30.926Z,0
2017-02-26T04:42:40.486Z,0
2017-02-26T04:43:50.343Z,0
2017-02-26T04:45:00.905Z,0
2017-02-26T04:46:11.213Z,0
2017-02-26T04:47:20.703Z,0
2017-02-26T04:48:31.041Z,0
2017-02-26T04:49:41.056Z,0
2017-02-26T04:50:51.613Z,0
2017-02-26T04:52:01.542Z,0
2017-02-26T04:53:10.998Z,0
2017-02-26T04:54:21.262Z,0
2017-02-26T04:55:31.552Z,0
2017-02-26T04:56:41.671Z,0
2017-02-26T04:57:51.937Z,0
2017-02-26T04:59:02.292Z,0
2017-02-26T05:00:12.596Z,0
2017-02-26T05:01:22.881Z,0
2017-02-26T05:02:33.515Z,0
2017-02-26T05:03:43.860Z,0
2017-02-26T05:04:54.128Z,0
2017-02-26T05:06:04.028Z,0
2017-02-26T05:07:14.293Z,0
2017-02-26T05:08:24.965Z,0
2017-02-26T05:09:34.907Z,0
2017-02-26T05:10:45.187Z,0
2017-02-26T05:11:55.450Z,0
2017-02-26T05:13:05.325Z,0
2017-02-26T05:14:15.974Z,0
2017-02-26T05:15:26.307Z,0
2017-02-26T05:16:36.203Z,0
2017-02-26T05:17:46.540Z,0
2017-02-26T05:18:56.402Z,0
2017-02-26T05:20:06.560Z,0
2017-02-26T05:21:16.020Z,0
2017-02-26T05:22:25.886Z,0
2017-02-26T05:23:35.813Z,0
2017-02-26T05:24:46.090Z,0
2017-02-26T05:25:56.199Z,0
2017-02-26T05:27:06.493Z,0
2017-02-26T05:28:16.382Z,0
2017-02-26T05:29:26.673Z,0
2017-02-26T05:30:37.049Z,0
2017-02-26T05:31:47.209Z,0
2017-02-26T05:32:57.387Z,0
2017-02-26T05:34:07.735Z,0
2017-02-26T05:35:18.119Z,0
2017-02-26T05:36:28.498Z,0
2017-02-26T05:37:38.613Z,0
2017-02-26T05:38:48.958Z,0
2017-02-26T05:39:58.519Z,0
2017-02-26T05:41:08.935Z,0
2017-02-26T05:42:18.853Z,4
2017-02-26T05:43:28.990Z,4
2017-02-26T05:44:39.282Z,4
2017-02-26T05:45:49.583Z,4
2017-02-26T05:46:59.442Z,4
2017-02-26T05:48:09.731Z,4
2017-02-26T05:49:19.432Z,12
2017-02-26T05:50:29.750Z,12
2017-02-26T05:51:40.040Z,12
2017-02-26T05:52:50.325Z,16
2017-02-26T05:54:00.200Z,20
2017-02-26T05:55:11.050Z,24
2017-02-26T05:56:20.910Z,28
2017-02-26T05:58:02.993Z,36
2017-02-26T05:59:12.850Z,40
2017-02-26T06:00:23.359Z,44
2017-02-26T06:01:33.416Z,48
2017-02-26T06:02:43.681Z,56
2017-02-26T06:03:53.961Z,60
2017-02-26T06:05:04.332Z,68
2017-02-26T06:06:14.566Z,72
2017-02-26T06:07:24.835Z,76
2017-02-26T06:08:35.119Z,76
2017-02-26T06:09:45.504Z,80
2017-02-26T06:10:54.984Z,84
2017-02-26T06:12:05.173Z,96
2017-02-26T06:13:15.487Z,108
2017-02-26T06:14:25.357Z,120
2017-02-26T06:15:35.687Z,124
2017-02-26T06:16:46.237Z,124
2017-02-26T06:17:56.828Z,128
2017-02-26T06:19:07.102Z,148
2017-02-26T06:20:16.652Z,176
2017-02-26T06:21:26.932Z,200
2017-02-26T06:22:37.242Z,220
2017-02-26T06:23:47.810Z,232
2017-02-26T06:24:58.106Z,232
2017-02-26T06:26:08.411Z,232
2017-02-26T06:27:17.889Z,248
2017-02-26T06:28:27.783Z,272
2017-02-26T06:29:37.476Z,296
2017-02-26T06:30:47.435Z,312
2017-02-26T06:31:57.298Z,320
2017-02-26T06:33:06.771Z,332
2017-02-26T06:34:16.628Z,340
2017-02-26T06:35:27.268Z,348
2017-02-26T06:36:37.561Z,360
2017-02-26T06:37:47.911Z,384
2017-02-26T06:38:58.194Z,404
2017-02-26T06:40:08.513Z,404
2017-02-26T06:41:18.682Z,424
2017-02-26T06:42:28.978Z,428
2017-02-26T06:43:38.848Z,448
2017-02-26T06:44:49.185Z,456
2017-02-26T06:45:59.192Z,444
2017-02-26T06:47:09.793Z,480
2017-02-26T06:48:19.685Z,520
2017-02-26T06:49:30.072Z,500
2017-02-26T06:50:40.001Z,492
2017-02-26T06:51:49.911Z,504
2017-02-26T06:53:00.168Z,512
2017-02-26T06:54:10.495Z,516
2017-02-26T06:55:20.799Z,532
2017-02-26T06:56:30.265Z,564
2017-02-26T06:57:40.147Z,632
2017-02-26T06:58:50.254Z,648
2017-02-26T07:00:00.578Z,704
2017-02-26T07:01:10.893Z,712
2017-02-26T07:02:20.783Z,716
2017-02-26T07:03:30.841Z,700
2017-02-26T07:04:41.391Z,696
2017-02-26T07:05:51.755Z,644
2017-02-26T07:07:01.894Z,620
2017-02-26T07:08:12.158Z,532
2017-02-26T07:09:21.627Z,476
2017-02-26T07:10:32.184Z,480
2017-02-26T07:11:42.450Z,496
2017-02-26T07:12:52.745Z,504
2017-02-26T07:14:03.035Z,580
2017-02-26T07:15:13.313Z,732
2017-02-26T07:16:23.842Z,1020
2017-02-26T07:17:33.704Z,1384
2017-02-26T07:18:43.186Z,1620
2017-02-26T07:19:53.065Z,1616
2017-02-26T07:21:03.218Z,1560
2017-02-26T07:22:13.951Z,1600
2017-02-26T07:23:23.806Z,1720
2017-02-26T07:24:34.069Z,1900
2017-02-26T07:25:43.951Z,2288
2017-02-26T07:26:53.966Z,2796
2017-02-26T07:28:03.705Z,3216
2017-02-26T07:29:13.559Z,3296
2017-02-26T07:30:23.872Z,3088
2017-02-26T07:31:34.173Z,2756
2017-02-26T07:32:44.497Z,2664
2017-02-26T07:33:55.090Z,2760
2017-02-26T07:35:05.543Z,2764
2017-02-26T07:36:15.851Z,2636
2017-02-26T07:37:26.120Z,2596
2017-02-26T07:39:08.392Z,2568
2017-02-26T07:40:18.751Z,2492
2017-02-26T07:41:29.151Z,2360
2017-02-26T07:42:39.454Z,2328
2017-02-26T07:43:49.969Z,2408
2017-02-26T07:45:00.624Z,2416
2017-02-26T07:46:10.909Z,2516
2017-02-26T07:47:20.784Z,2376
2017-02-26T07:48:31.092Z,2236
2017-02-26T07:49:41.359Z,2328
2017-02-26T07:50:51.490Z,2556
2017-02-26T07:52:01.840Z,2636
2017-02-26T07:53:12.118Z,2604
2017-02-26T07:54:22.395Z,2584
2017-02-26T07:55:31.919Z,2612
2017-02-26T07:56:42.550Z,2832
2017-02-26T07:57:52.962Z,3180
2017-02-26T07:59:02.080Z,3412
2017-02-26T08:00:12.506Z,3424
2017-02-26T08:01:22.811Z,3320
2017-02-26T08:02:33.340Z,3052
2017-02-26T08:03:42.824Z,2840
2017-02-26T08:04:53.174Z,2852
2017-02-26T08:06:03.461Z,2952
2017-02-26T08:07:13.817Z,2996
2017-02-26T08:08:24.330Z,3000
2017-02-26T08:09:34.619Z,2856
2017-02-26T08:10:44.126Z,2700
2017-02-26T08:11:54.393Z,2556
2017-02-26T08:13:04.276Z,2440
2017-02-26T08:14:14.451Z,2416
2017-02-26T08:15:24.352Z,2512
2017-02-26T08:16:34.716Z,2760
2017-02-26T08:17:44.990Z,3240
2017-02-26T08:18:54.876Z,3904
2017-02-26T08:20:05.652Z,4540
2017-02-26T08:21:15.947Z,4872
2017-02-26T08:22:26.257Z,5100
2017-02-26T08:23:35.776Z,5140
2017-02-26T08:24:45.665Z,5168
2017-02-26T08:25:56.192Z,5276
2017-02-26T08:27:06.570Z,5300
2017-02-26T08:28:16.532Z,5388
2017-02-26T08:29:26.862Z,5596
2017-02-26T08:30:37.183Z,5892
2017-02-26T08:31:47.323Z,6104
2017-02-26T08:32:57.645Z,6248
2017-02-26T08:34:07.511Z,6432
2017-02-26T08:35:17.846Z,6440
2017-02-26T08:36:28.142Z,6896
2017-02-26T08:37:38.675Z,7360
2017-02-26T08:38:48.571Z,7228
2017-02-26T08:39:58.479Z,7232
2017-02-26T08:41:08.802Z,7268
2017-02-26T08:42:18.694Z,7220
2017-02-26T08:43:29.278Z,7324
2017-02-26T08:44:39.546Z,7296
2017-02-26T08:45:49.867Z,7060
2017-02-26T08:46:59.761Z,7040
2017-02-26T08:48:10.057Z,6984
2017-02-26T08:49:20.656Z,7256
2017-02-26T08:50:30.539Z,7868
2017-02-26T08:51:40.816Z,9004
2017-02-26T08:52:51.139Z,9912
2017-02-26T08:54:01.409Z,10260
2017-02-26T08:55:11.936Z,10136
2017-02-26T08:56:22.259Z,10056
2017-02-26T08:57:32.580Z,10560
2017-02-26T08:58:42.897Z,11872
2017-02-26T08:59:53.315Z,13688
2017-02-26T09:01:03.472Z,15508
2017-02-26T09:02:13.374Z,18944
2017-02-26T09:03:23.297Z,19296
2017-02-26T09:04:33.605Z,24736
2017-02-26T09:05:43.915Z,24288
2017-02-26T09:06:54.519Z,22432
2017-02-26T09:08:04.922Z,20704
2017-02-26T09:09:15.320Z,19872
2017-02-26T09:10:25.278Z,18112
2017-02-26T09:11:35.593Z,16224
2017-02-26T09:12:45.731Z,14904
2017-02-26T09:13:56.045Z,14056
2017-02-26T09:15:06.334Z,13072
2017-02-26T09:16:16.657Z,13460
2017-02-26T09:17:27.020Z,11580
2017-02-26T09:18:37.602Z,11204
2017-02-26T09:19:47.507Z,11216
2017-02-26T09:20:57.800Z,11352
2017-02-26T09:22:07.850Z,11968
2017-02-26T09:23:18.148Z,12760
2017-02-26T09:24:28.344Z,13280
2017-02-26T09:25:37.869Z,13052
2017-02-26T09:26:48.293Z,12712
2017-02-26T09:27:58.628Z,12624
2017-02-26T09:29:08.556Z,12408
2017-02-26T09:30:19.138Z,12244
2017-02-26T09:31:29.449Z,12200
2017-02-26T09:32:39.394Z,12076
2017-02-26T09:33:49.845Z,11988
2017-02-26T09:35:00.199Z,11512
2017-02-26T09:36:10.726Z,10864
2017-02-26T09:37:21.098Z,10396
2017-02-26T09:38:31.550Z,10304
2017-02-26T09:39:41.829Z,10276
2017-02-26T09:40:52.110Z,9608
2017-02-26T09:42:02.658Z,9068
2017-02-26T09:43:12.588Z,8700
2017-02-26T09:44:22.869Z,8648
2017-02-26T09:45:32.771Z,8880
2017-02-26T09:46:43.090Z,9296
2017-02-26T09:47:53.229Z,10000
2017-02-26T09:49:03.532Z,10740
2017-02-26T09:50:13.835Z,11600
2017-02-26T09:51:23.770Z,12276
2017-02-26T09:52:34.048Z,16768
2017-02-26T09:53:44.602Z,18368
2017-02-26T09:54:53.693Z,16448
2017-02-26T09:56:03.968Z,19168
2017-02-26T09:57:14.339Z,14064
2017-02-26T09:58:24.626Z,12048
2017-02-26T09:59:35.144Z,8684
2017-02-26T10:00:45.126Z,7796
2017-02-26T10:01:55.205Z,7416
2017-02-26T10:03:05.311Z,7232
2017-02-26T10:04:16.057Z,7248
2017-02-26T10:05:25.879Z,7452
2017-02-26T10:06:35.823Z,8124
2017-02-26T10:07:46.177Z,8972
2017-02-26T10:08:56.086Z,9140
2017-02-26T10:10:06.361Z,9272
2017-02-26T10:11:16.542Z,10232
2017-02-26T10:12:26.853Z,9740
2017-02-26T10:13:37.224Z,8248
2017-02-26T10:14:47.131Z,7908
2017-02-26T10:15:57.483Z,8268
2017-02-26T10:17:08.046Z,9948
2017-02-26T10:18:18.373Z,12832
2017-02-26T10:19:28.269Z,17312
2017-02-26T10:20:38.131Z,16768
2017-02-26T10:21:48.058Z,13216
2017-02-26T10:22:58.311Z,9056
2017-02-26T10:24:07.890Z,6956
2017-02-26T10:25:17.866Z,6468
2017-02-26T10:26:28.169Z,7068
2017-02-26T10:27:38.487Z,9068
2017-02-26T10:28:49.026Z,12836
2017-02-26T10:29:59.371Z,16832
2017-02-26T10:31:09.268Z,17408
2017-02-26T10:32:19.640Z,16768
2017-02-26T10:33:29.120Z,14640
2017-02-26T10:34:39.736Z,10968
2017-02-26T10:35:49.915Z,11544
2017-02-26T10:37:00.266Z,12048
2017-02-26T10:38:10.715Z,12540
2017-02-26T10:39:21.070Z,12736
2017-02-26T10:40:31.658Z,12316
2017-02-26T10:41:41.710Z,13032
2017-02-26T10:42:51.648Z,14900
2017-02-26T10:44:02.021Z,17280
2017-02-26T10:45:11.960Z,14924
2017-02-26T10:46:22.575Z,13720
2017-02-26T10:47:33.258Z,14920
2017-02-26T10:48:43.811Z,14568
2017-02-26T10:49:54.151Z,14768
2017-02-26T10:51:04.531Z,16928
2017-02-26T10:52:15.115Z,16608
2017-02-26T10:53:25.057Z,14320
2017-02-26T10:54:35.512Z,13280
2017-02-26T10:55:45.842Z,13120
2017-02-26T10:56:54.967Z,12072
2017-02-26T10:58:05.173Z,10520
2017-02-26T10:59:15.517Z,9936
2017-02-26T11:00:25.846Z,10144
2017-02-26T11:01:35.787Z,11476
2017-02-26T11:02:46.152Z,11148
2017-02-26T11:03:56.731Z,10984
2017-02-26T11:05:06.258Z,10224
2017-02-26T11:06:16.559Z,10820
2017-02-26T11:07:26.469Z,10068
2017-02-26T11:08:36.821Z,9260
2017-02-26T11:09:47.390Z,9888
2017-02-26T11:11:01.956Z,11128
2017-02-26T11:12:17.564Z,12104
2017-02-26T11:13:30.762Z,13612
2017-02-26T11:14:43.619Z,19808
2017-02-26T11:15:55.764Z,26944
2017-02-26T11:17:09.317Z,28992
2017-02-26T11:18:21.886Z,21504
2017-02-26T11:19:34.796Z,16512
2017-02-26T11:20:49.123Z,13004
2017-02-26T11:21:59.449Z,11672
2017-02-26T11:23:09.373Z,11440
2017-02-26T11:24:19.725Z,12380
2017-02-26T11:25:29.787Z,12652
2017-02-26T11:26:40.418Z,12528
2017-02-26T11:27:50.778Z,11404
2017-02-26T11:29:01.110Z,10788
2017-02-26T11:30:11.556Z,9796
2017-02-26T11:31:21.932Z,9308
2017-02-26T11:32:32.113Z,8616
2017-02-26T11:33:42.052Z,8308
2017-02-26T11:34:51.550Z,8024
2017-02-26T11:36:01.596Z,8348
2017-02-26T11:37:12.019Z,9056
2017-02-26T11:38:22.769Z,9028
2017-02-26T11:39:32.673Z,10236
2017-02-26T11:40:43.298Z,12008
2017-02-26T11:41:53.585Z,15008
2017-02-26T11:43:03.486Z,17408
2017-02-26T11:44:14.236Z,17344
2017-02-26T11:45:24.443Z,16480
2017-02-26T11:46:34.920Z,14500
2017-02-26T11:47:44.829Z,14220
2017-02-26T11:48:54.771Z,15472
2017-02-26T11:50:05.449Z,15556
2017-02-26T11:51:15.827Z,17472
2017-02-26T11:52:26.187Z,18976
2017-02-26T11:53:36.483Z,21216
2017-02-26T11:54:46.383Z,26016
2017-02-26T11:55:56.984Z,32608
2017-02-26T11:57:07.363Z,30976
2017-02-26T11:58:17.336Z,33728
2017-02-26T11:59:27.663Z,24896
2017-02-26T12:00:37.651Z,21248
2017-02-26T12:01:48.218Z,21952
2017-02-26T12:02:58.306Z,23040
2017-02-26T12:04:08.247Z,26208
2017-02-26T12:05:18.640Z,37856
2017-02-26T12:06:29.307Z,33408
2017-02-26T12:07:40.122Z,30400
2017-02-26T12:08:50.441Z,49024
2017-02-26T12:10:00.740Z,41184
2017-02-26T12:11:10.640Z,84768
2017-02-26T12:12:20.518Z,65760
2017-02-26T12:13:30.242Z,31072
2017-02-26T12:14:40.118Z,25696
2017-02-26T12:15:50.024Z,49792
2017-02-26T12:17:00.338Z,36736
2017-02-26T12:18:10.759Z,36128
2017-02-26T12:19:21.384Z,37472
2017-02-26T12:20:31.814Z,48320
2017-02-26T12:22:13.833Z,60320
2017-02-26T12:23:24.184Z,52992
2017-02-26T12:24:34.325Z,36512
2017-02-26T12:25:44.711Z,23360
2017-02-26T12:26:55.032Z,18048
2017-02-26T12:28:04.991Z,20352
2017-02-26T12:29:15.369Z,16256
2017-02-26T12:30:25.546Z,13256
2017-02-26T12:31:35.456Z,10772
2017-02-26T12:32:45.833Z,10112
2017-02-26T12:33:56.214Z,9768
2017-02-26T12:35:06.555Z,8696
2017-02-26T12:36:16.770Z,8236
2017-02-26T12:37:27.112Z,7864
2017-02-26T12:38:37.469Z,7772
2017-02-26T12:39:47.405Z,7444
2017-02-26T12:40:57.735Z,6916
2017-02-26T12:42:07.913Z,6672
2017-02-26T12:43:18.360Z,6324
2017-02-26T12:44:27.873Z,5832
2017-02-26T12:45:37.815Z,6104
2017-02-26T12:46:47.716Z,6376
2017-02-26T12:47:57.867Z,6472
2017-02-26T12:49:07.056Z,7108
2017-02-26T12:50:17.347Z,8072
2017-02-26T12:51:27.645Z,7748
2017-02-26T12:52:38.101Z,8620
2017-02-26T12:53:48.813Z,9608
2017-02-26T12:54:59.450Z,9716
2017-02-26T12:56:09.812Z,8204
2017-02-26T12:57:19.778Z,7956
2017-02-26T12:58:30.050Z,8536
2017-02-26T12:59:40.732Z,9176
2017-02-26T13:00:51.136Z,9684
2017-02-26T13:02:01.519Z,11376
2017-02-26T13:03:11.871Z,13036
2017-02-26T13:04:22.207Z,14540
2017-02-26T13:05:32.755Z,15548
2017-02-26T13:06:43.056Z,14620
2017-02-26T13:07:53.421Z,14880
2017-02-26T13:09:03.383Z,13816
2017-02-26T13:10:13.893Z,14024
2017-02-26T13:11:24.515Z,12000
2017-02-26T13:12:34.833Z,17120
2017-02-26T13:13:45.216Z,19168
2017-02-26T13:14:55.541Z,18048
2017-02-26T13:16:05.637Z,25216
2017-02-26T13:17:16.241Z,22784
2017-02-26T13:18:26.629Z,17696
2017-02-26T13:19:36.967Z,16384
2017-02-26T13:20:47.346Z,15352
2017-02-26T13:21:57.689Z,15528
2017-02-26T13:23:08.446Z,15508
2017-02-26T13:24:18.816Z,16256
2017-02-26T13:25:29.161Z,17440
2017-02-26T13:26:39.602Z,20640
2017-02-26T13:27:49.911Z,20960
2017-02-26T13:29:00.810Z,19008
2017-02-26T13:30:11.114Z,21408
2017-02-26T13:31:21.491Z,24160
2017-02-26T13:32:31.837Z,19072
2017-02-26T13:33:41.846Z,16960
2017-02-26T13:34:52.377Z,19936
2017-02-26T13:36:02.748Z,24096
2017-02-26T13:37:13.071Z,18304
2017-02-26T13:38:23.383Z,17632
2017-02-26T13:39:33.308Z,22464
2017-02-26T13:40:43.863Z,21312
2017-02-26T13:41:54.313Z,29504
2017-02-26T13:43:04.341Z,18240
2017-02-26T13:44:14.308Z,18944
2017-02-26T13:45:24.787Z,26848
2017-02-26T13:46:35.035Z,14720
2017-02-26T13:47:45.381Z,13468
2017-02-26T13:48:55.303Z,12940
2017-02-26T13:50:05.641Z,9856
2017-02-26T13:51:15.973Z,9512
2017-02-26T13:52:26.620Z,10504
2017-02-26T13:53:37.073Z,11732
2017-02-26T13:54:47.395Z,10212
2017-02-26T13:55:57.708Z,10020
2017-02-26T13:57:08.411Z,9448
2017-02-26T13:58:18.970Z,8708
2017-02-26T13:59:29.316Z,8344
2017-02-26T14:00:39.669Z,8208
2017-02-26T14:01:49.975Z,8252
2017-02-26T14:03:00.387Z,9424
2017-02-26T14:04:10.967Z,9620
2017-02-26T14:05:21.399Z,9896
2017-02-26T14:06:31.758Z,9996
2017-02-26T14:07:42.104Z,9468
2017-02-26T14:08:52.437Z,8976
2017-02-26T14:10:02.606Z,8276
2017-02-26T14:11:12.947Z,8096
2017-02-26T14:12:23.322Z,7952
2017-02-26T14:13:33.231Z,7548
2017-02-26T14:14:43.516Z,7328
2017-02-26T14:15:54.100Z,7164
2017-02-26T14:17:04.049Z,7552
2017-02-26T14:18:13.984Z,7412
2017-02-26T14:19:23.880Z,8484
2017-02-26T14:20:33.883Z,9272
2017-02-26T14:21:44.482Z,12384
2017-02-26T14:22:54.834Z,10776
2017-02-26T14:24:04.744Z,14864
2017-02-26T14:25:15.079Z,15968
2017-02-26T14:26:25.035Z,10400
2017-02-26T14:27:35.612Z,13164
2017-02-26T14:28:45.492Z,48416
2017-02-26T14:29:55.481Z,49600
2017-02-26T14:31:05.808Z,56384
2017-02-26T14:32:16.130Z,30464
2017-02-26T14:33:26.755Z,53472
2017-02-26T14:34:36.669Z,27776
2017-02-26T14:35:46.675Z,23360
2017-02-26T14:36:56.985Z,55232
2017-02-26T14:38:06.974Z,52352
2017-02-26T14:39:17.630Z,46464
2017-02-26T14:40:28.040Z,40864
2017-02-26T14:41:38.357Z,40192
2017-02-26T14:42:48.790Z,17568
2017-02-26T14:43:59.116Z,9476
2017-02-26T14:45:09.679Z,9136
2017-02-26T14:46:20.001Z,17792
2017-02-26T14:47:29.578Z,19136
2017-02-26T14:48:39.950Z,40416
2017-02-26T14:49:50.288Z,34912
2017-02-26T14:51:01.152Z,20736
2017-02-26T14:52:11.547Z,19392
2017-02-26T14:53:21.460Z,19936
2017-02-26T14:54:31.861Z,16480
2017-02-26T14:55:41.356Z,14652
2017-02-26T14:56:51.949Z,13804
2017-02-26T14:58:01.878Z,13152
2017-02-26T14:59:11.993Z,13064
2017-02-26T15:00:22.548Z,12260
2017-02-26T15:01:32.917Z,12228
2017-02-26T15:02:43.564Z,13856
2017-02-26T15:03:53.522Z,12632
2017-02-26T15:05:03.936Z,11412
2017-02-26T15:06:14.350Z,11188
2017-02-26T15:07:24.715Z,11096
2017-02-26T15:08:35.428Z,10572
2017-02-26T15:09:45.733Z,11040
2017-02-26T15:10:55.911Z,12428
2017-02-26T15:12:06.263Z,12396
2017-02-26T15:13:16.202Z,9792
2017-02-26T15:14:26.775Z,9264
2017-02-26T15:15:37.183Z,9908
2017-02-26T15:16:47.111Z,10380
2017-02-26T15:17:57.192Z,9292
2017-02-26T15:19:07.117Z,8580
2017-02-26T15:20:17.723Z,11668
2017-02-26T15:21:28.052Z,9800
2017-02-26T15:22:38.371Z,8156
2017-02-26T15:23:48.730Z,6732
2017-02-26T15:24:59.069Z,6652
2017-02-26T15:26:09.669Z,6936
2017-02-26T15:27:19.964Z,6652
2017-02-26T15:28:29.915Z,6596
2017-02-26T15:29:39.809Z,6268
2017-02-26T15:30:50.139Z,5720
2017-02-26T15:32:00.746Z,5400
2017-02-26T15:33:11.049Z,5268
2017-02-26T15:34:21.406Z,5208
2017-02-26T15:35:31.350Z,4996
2017-02-26T15:36:41.376Z,5148
2017-02-26T15:37:52.085Z,5204
2017-02-26T15:39:02.055Z,5156
2017-02-26T15:40:12.406Z,4948
2017-02-26T15:41:22.869Z,4656
2017-02-26T15:42:32.839Z,4504
2017-02-26T15:43:43.171Z,4344
2017-02-26T15:44:53.082Z,4480
2017-02-26T15:46:03.421Z,3524
2017-02-26T15:47:13.335Z,3200
2017-02-26T15:48:23.723Z,2860
2017-02-26T15:49:33.924Z,2312
2017-02-26T15:50:43.888Z,1696
2017-02-26T15:51:54.400Z,1580
2017-02-26T15:53:04.851Z,2280
2017-02-26T15:54:15.223Z,2980
2017-02-26T15:55:25.404Z,2676
2017-02-26T15:56:35.723Z,2108
2017-02-26T15:57:45.680Z,1820
2017-02-26T15:58:55.997Z,1648
2017-02-26T16:00:06.363Z,1720
2017-02-26T16:01:16.566Z,1864
2017-02-26T16:02:26.117Z,1944
2017-02-26T16:03:36.075Z,2028
2017-02-26T16:04:46.402Z,2280
2017-02-26T16:05:57.039Z,2104